Terminal Aerodrome Forecast
Issued by NWS Louisville, KY

Home | Current Version | Previous Version | Text Only | Print | Product List | Glossary Off
Versions: 1 2 3 4 5 6 7 8 9 10 11 12 13 14 15 16 17 18 19

776
FTUS43 KLMK 241720
TAFLEX
TAF
KLEX 241720Z 2418/2518 01009KT 5SM -SHRA BR BKN006
     FM241900 15009KT 5SM -SHRA BR SCT006 OVC012
      TEMPO 2421/2501 2SM -TSRA BR BKN006CB
     FM250100 16012G17KT 5SM -SHRA VCTS OVC025CB WS020/19045KT
     FM250400 19018G27KT 5SM -SHRA VCTS OVC025CB WS020/20060KT
     FM250900 26020G27KT 6SM -SHRA BR OVC015
     FM251300 27012KT P6SM SCT015 BKN250=

USA.gov is the U.S. government's official web portal to all federal, state and local government web resources and services.